Time;durP1;ratioP1;P1;durP2;ratioP2;P2;SDS_P1;SDS_P2;PMS_P1;PMS_P2;Temp;Humidity;BMP_temperature;BMP_pressure;BME280_temperature;BME280_humidity;BME280_pressure;Samples;Min_cycle;Max_cycle;Signal;HPM_P1;HPM_P2
2022/05/18 00:01:26;;;;;;;0.10;0.10;;;14.20;99.90;226.50;231333.00;;;;5091052;28;20189;-72
2022/05/18 00:03:54;;;;;;;0.00;0.00;;;14.20;99.90;226.50;231333.00;;;;5091424;28;20595;-70
2022/05/18 00:06:23;;;;;;;0.00;0.00;;;14.20;99.90;226.50;231333.00;;;;5092899;28;20193;-68
2022/05/18 00:08:51;;;;;;;0.10;0.10;;;14.00;1.00;226.50;231333.00;;;;5112522;28;20201;-70
2022/05/18 00:11:21;;;;;;;0.00;0.00;;;14.00;1.00;226.50;231333.00;;;;5112861;28;20189;-68
2022/05/18 00:13:54;;;;;;;0.03;0.03;;;13.80;1.00;226.50;231333.00;;;;5102902;28;20664;-72
2022/05/18 00:16:24;;;;;;;0.00;0.00;;;13.80;1.00;226.50;231333.00;;;;5084263;28;20250;-71
2022/05/18 00:18:55;;;;;;;0.00;0.00;;;13.80;1.00;226.50;231333.00;;;;5064751;28;20260;-68
2022/05/18 00:21:24;;;;;;;0.00;0.00;;;13.90;1.00;226.50;231333.00;;;;5091043;28;20197;-69
2022/05/18 00:23:53;;;;;;;0.08;0.08;;;13.80;1.00;226.50;231333.00;;;;5088760;28;20221;-71
2022/05/18 00:26:21;;;;;;;0.00;0.00;;;13.70;1.00;226.50;231333.00;;;;5090083;28;20601;-71
2022/05/18 00:28:51;;;;;;;0.00;0.00;;;13.70;1.00;226.50;231333.00;;;;5091371;28;20216;-69
2022/05/18 00:31:20;;;;;;;0.00;0.00;;;13.70;1.00;226.50;231333.00;;;;5090994;28;21190;-71
2022/05/18 00:33:49;;;;;;;0.08;0.08;;;13.70;99.90;226.50;231333.00;;;;5092054;28;20201;-71
2022/05/18 00:36:17;;;;;;;0.10;0.10;;;13.60;70.60;226.50;231333.00;;;;5091441;28;20693;-71
2022/05/18 00:38:46;;;;;;;0.10;0.10;;;13.60;99.90;226.50;231333.00;;;;5091712;28;20209;-71
2022/05/18 00:41:19;;;;;;;0.00;0.00;;;13.50;1.00;226.50;231333.00;;;;5088465;28;20216;-70
2022/05/18 00:43:52;;;;;;;0.00;0.00;;;13.50;1.00;226.50;231333.00;;;;5083984;28;20731;-70
2022/05/18 00:46:21;;;;;;;0.00;0.00;;;13.60;1.00;226.50;231333.00;;;;5090346;28;20665;-71
2022/05/18 00:48:53;;;;;;;0.00;0.00;;;13.60;99.90;226.50;231333.00;;;;5090691;28;20233;-71
2022/05/18 00:51:30;;;;;;;0.10;0.10;;;13.60;99.90;226.50;231333.00;;;;5081053;28;20575;-72
2022/05/18 00:54:07;;;;;;;0.00;0.00;;;13.60;99.90;226.50;231333.00;;;;5090515;28;20675;-72
2022/05/18 00:56:42;;;;;;;0.00;0.00;;;13.70;99.90;226.50;231333.00;;;;5084026;28;20197;-73
2022/05/18 00:59:19;;;;;;;0.10;0.10;;;13.70;99.90;226.50;231333.00;;;;5094188;28;20224;-71
2022/05/18 01:01:50;;;;;;;0.00;0.00;;;13.70;99.90;226.50;231333.00;;;;5094432;28;20192;-72
2022/05/18 01:04:19;;;;;;;0.00;0.00;;;13.40;99.90;226.50;231333.00;;;;5094000;28;20221;-71
2022/05/18 01:06:59;;;;;;;0.10;0.10;;;13.30;1.00;226.50;231333.00;;;;5093120;28;20204;-71
2022/05/18 01:09:34;;;;;;;0.00;0.00;;;13.40;1.00;226.50;231333.00;;;;5081192;28;20219;-72
2022/05/18 01:12:02;;;;;;;0.10;0.10;;;13.30;1.00;226.50;231333.00;;;;5093506;28;20245;-72
2022/05/18 01:14:39;;;;;;;0.00;0.00;;;13.40;1.00;226.50;231333.00;;;;5094414;28;20201;-71
2022/05/18 01:17:08;;;;;;;0.00;0.00;;;13.30;1.00;226.50;231333.00;;;;5093435;28;20226;-72
2022/05/18 01:19:44;;;;;;;0.00;0.00;;;13.30;1.00;226.50;231333.00;;;;5094313;28;20209;-70
2022/05/18 01:22:25;;;;;;;0.00;0.00;;;13.40;1.00;226.50;231333.00;;;;5094447;28;20196;-72
2022/05/18 01:25:07;;;;;;;0.03;0.03;;;13.40;1.00;226.50;231333.00;;;;5094316;28;20217;-72
2022/05/18 01:27:37;;;;;;;0.10;0.10;;;13.40;1.00;226.50;231333.00;;;;5093931;28;20197;-70
2022/05/18 01:30:08;;;;;;;0.00;0.00;;;13.40;1.00;226.50;231333.00;;;;5079617;28;20612;-72
2022/05/18 01:32:47;;;;;;;0.00;0.00;;;13.40;1.00;226.50;231333.00;;;;5094324;28;20193;-72
2022/05/18 01:35:22;;;;;;;0.10;0.10;;;13.40;1.00;226.50;231333.00;;;;5094080;28;20197;-72
2022/05/18 01:37:57;;;;;;;0.00;0.00;;;13.50;1.00;226.50;231333.00;;;;5093528;28;20193;-72
2022/05/18 01:40:36;;;;;;;0.08;0.08;;;13.50;1.00;226.50;231333.00;;;;5092638;28;20773;-73
2022/05/18 01:43:18;;;;;;;0.00;0.00;;;13.50;1.00;226.50;231333.00;;;;5093466;28;20200;-73
2022/05/18 01:45:51;;;;;;;0.03;0.03;;;13.40;1.00;226.50;231333.00;;;;5095195;28;20252;-72
2022/05/18 01:48:25;;;;;;;0.00;0.00;;;13.40;1.00;226.50;231333.00;;;;5092765;28;20220;-72
2022/05/18 01:50:54;;;;;;;0.00;0.00;;;13.40;1.00;226.50;231333.00;;;;5093422;28;20188;-72
2022/05/18 01:53:23;;;;;;;0.08;0.08;;;13.40;1.00;226.50;231333.00;;;;5092978;28;20553;-73
2022/05/18 01:55:52;;;;;;;0.10;0.10;;;13.40;1.00;226.50;231333.00;;;;5093272;28;20205;-73
2022/05/18 01:58:22;;;;;;;0.00;0.00;;;13.50;1.00;226.50;231333.00;;;;5075449;28;20245;-71
2022/05/18 02:00:53;;;;;;;0.10;0.10;;;13.50;1.00;226.50;231333.00;;;;5093180;28;20556;-72
2022/05/18 02:03:24;;;;;;;0.00;0.00;;;13.50;1.00;226.50;231333.00;;;;5075410;28;20223;-69
2022/05/18 02:05:53;;;;;;;0.00;0.00;;;13.50;1.00;226.50;231333.00;;;;5092675;28;20266;-69
2022/05/18 02:08:23;;;;;;;0.10;0.10;;;13.40;1.00;226.50;231333.00;;;;5093070;28;20208;-69
2022/05/18 02:10:52;;;;;;;0.10;0.10;;;13.30;1.00;226.50;231333.00;;;;5085241;28;20197;-69
2022/05/18 02:13:22;;;;;;;0.10;0.10;;;13.30;1.00;226.50;231333.00;;;;5091485;28;20602;-72
2022/05/18 02:15:51;;;;;;;0.00;0.00;;;13.20;1.00;226.50;231333.00;;;;5092958;28;20215;-70
2022/05/18 02:18:20;;;;;;;0.10;0.10;;;13.30;1.00;226.50;231333.00;;;;5092850;28;20189;-69
2022/05/18 02:20:49;;;;;;;0.00;0.00;;;13.20;1.00;226.50;231333.00;;;;5092868;28;20197;-69
2022/05/18 02:23:17;;;;;;;0.10;0.10;;;13.20;1.00;226.50;231333.00;;;;5093076;28;20243;-70
2022/05/18 02:25:46;;;;;;;0.00;0.00;;;13.20;1.00;226.50;231333.00;;;;5092745;28;20239;-69
2022/05/18 02:28:14;;;;;;;0.10;0.10;;;13.30;1.00;226.50;231333.00;;;;5093163;28;20608;-71
2022/05/18 02:30:44;;;;;;;0.10;0.10;;;13.40;1.00;226.50;231333.00;;;;5094742;28;20593;-71
2022/05/18 02:33:13;;;;;;;0.10;0.10;;;13.40;1.00;226.50;231333.00;;;;5092797;28;20197;-68
2022/05/18 02:35:41;;;;;;;0.00;0.00;;;13.50;1.00;226.50;231333.00;;;;5092484;28;20193;-69
2022/05/18 02:38:11;;;;;;;0.05;0.05;;;13.50;1.00;226.50;231333.00;;;;5092248;28;20246;-70
2022/05/18 02:40:39;;;;;;;0.10;0.10;;;13.50;1.00;226.50;231333.00;;;;5091823;28;20193;-71
2022/05/18 02:43:08;;;;;;;0.00;0.00;;;13.40;1.00;226.50;231333.00;;;;5088822;28;20538;-69
2022/05/18 02:45:37;;;;;;;0.10;0.10;;;13.50;1.00;226.50;231333.00;;;;5081882;28;20233;-78
2022/05/18 02:48:08;;;;;;;0.10;0.10;;;13.50;1.00;226.50;231333.00;;;;5090084;28;20197;-68
2022/05/18 02:50:37;;;;;;;0.10;0.10;;;13.40;1.00;226.50;231333.00;;;;5094139;28;20640;-69
2022/05/18 02:53:06;;;;;;;0.00;0.00;;;13.30;1.00;226.50;231333.00;;;;5095292;28;20193;-71
2022/05/18 02:58:21;;;;;;;0.10;0.10;;;13.30;1.00;226.50;231333.00;;;;5097966;28;20201;-71
2022/05/18 03:00:50;;;;;;;0.10;0.10;;;13.40;1.00;226.50;231333.00;;;;5096141;28;20704;-71
2022/05/18 03:03:21;;;;;;;0.10;0.10;;;13.40;1.00;226.50;231333.00;;;;5080415;28;20209;-71
2022/05/18 03:05:49;;;;;;;0.00;0.00;;;13.50;1.00;226.50;231333.00;;;;5105622;28;20216;-71
2022/05/18 03:08:18;;;;;;;0.00;0.00;;;13.60;1.00;226.50;231333.00;;;;5103150;28;20234;-71
2022/05/18 03:10:47;;;;;;;0.03;0.03;;;13.60;1.00;226.50;231333.00;;;;5092888;28;20197;-71
2022/05/18 03:13:15;;;;;;;0.00;0.00;;;13.70;1.00;226.50;231333.00;;;;5092026;28;20219;-71
2022/05/18 03:15:46;;;;;;;0.10;0.10;;;13.60;1.00;226.50;231333.00;;;;5089926;28;20200;-72
2022/05/18 03:18:16;;;;;;;0.00;0.00;;;13.60;1.00;226.50;231333.00;;;;5091101;28;20204;-71
2022/05/18 03:23:36;;;;;;;0.10;0.10;;;13.70;1.00;226.50;231333.00;;;;5094114;28;20198;-73
2022/05/18 03:26:09;;;;;;;0.00;0.00;;;13.70;78.50;226.50;231333.00;;;;5090747;28;20227;-72
2022/05/18 03:28:39;;;;;;;0.00;0.00;;;13.80;99.90;226.50;231333.00;;;;5090009;28;20646;-71
2022/05/18 03:31:10;;;;;;;0.00;0.00;;;13.80;99.90;226.50;231333.00;;;;5090969;28;20219;-71
2022/05/18 03:33:40;;;;;;;0.00;0.00;;;13.80;99.90;226.50;231333.00;;;;5088226;28;20193;-72
2022/05/18 03:36:12;;;;;;;0.00;0.00;;;13.90;99.90;226.50;231333.00;;;;5090130;28;20661;-72
2022/05/18 03:38:42;;;;;;;0.10;0.10;;;13.90;99.90;226.50;231333.00;;;;5091170;28;20776;-70
2022/05/18 03:41:11;;;;;;;0.00;0.00;;;13.90;99.90;226.50;231333.00;;;;5090857;28;20193;-70
2022/05/18 03:43:41;;;;;;;0.00;0.00;;;13.90;99.90;226.50;231333.00;;;;5092792;28;20197;-72
2022/05/18 03:46:11;;;;;;;0.00;0.00;;;13.90;99.90;226.50;231333.00;;;;5086138;28;20704;-72
2022/05/18 03:48:40;;;;;;;0.05;0.05;;;13.90;99.90;226.50;231333.00;;;;5090787;28;20515;-71
2022/05/18 03:51:12;;;;;;;0.00;0.00;;;13.90;99.90;226.50;231333.00;;;;5090056;28;20206;-71
2022/05/18 03:53:41;;;;;;;0.00;0.00;;;14.00;99.90;226.50;231333.00;;;;5091126;28;20197;-72
2022/05/18 03:56:11;;;;;;;0.10;0.10;;;13.90;99.90;226.50;231333.00;;;;5083692;28;20200;-70
2022/05/18 03:58:40;;;;;;;0.10;0.10;;;14.00;99.90;226.50;231333.00;;;;5090750;28;20216;-71
2022/05/18 04:01:10;;;;;;;0.05;0.05;;;14.10;99.90;226.50;231333.00;;;;5082064;28;20657;-73
2022/05/18 04:03:42;;;;;;;0.10;0.10;;;14.00;99.90;226.50;231333.00;;;;5093206;28;20197;-69
2022/05/18 04:06:13;;;;;;;0.10;0.10;;;14.00;99.90;226.50;231333.00;;;;5090187;28;20252;-70
2022/05/18 04:08:42;;;;;;;0.00;0.00;;;14.00;99.90;226.50;231333.00;;;;5088707;28;20270;-70
2022/05/18 04:11:12;;;;;;;0.00;0.00;;;14.00;99.90;226.50;231333.00;;;;5097238;28;20220;-71
2022/05/18 04:13:42;;;;;;;0.10;0.10;;;14.00;99.90;226.50;231333.00;;;;5100524;28;20196;-71
2022/05/18 04:16:10;;;;;;;0.10;0.10;;;14.00;99.90;226.50;231333.00;;;;5103227;28;20197;-72
2022/05/18 04:18:39;;;;;;;0.08;0.08;;;14.00;99.90;226.50;231333.00;;;;5094765;28;20689;-70
2022/05/18 04:21:07;;;;;;;0.00;0.00;;;14.00;99.90;226.50;231333.00;;;;5091183;28;20193;-71
2022/05/18 04:23:41;;;;;;;0.10;0.10;;;14.10;99.90;226.50;231333.00;;;;5095944;28;20189;-71
2022/05/18 04:26:10;;;;;;;0.08;0.08;;;14.10;99.90;226.50;231333.00;;;;5090873;28;20239;-71
2022/05/18 04:28:40;;;;;;;0.00;0.00;;;14.20;99.90;226.50;231333.00;;;;5089610;28;20209;-71
2022/05/18 04:31:08;;;;;;;0.00;0.00;;;14.20;99.90;226.50;231333.00;;;;5092604;28;20276;-71
2022/05/18 04:33:38;;;;;;;0.10;0.10;;;14.40;99.90;226.50;231333.00;;;;5093730;28;20215;-70
2022/05/18 04:36:08;;;;;;;0.00;0.00;;;14.40;99.90;226.50;231333.00;;;;5093437;28;20197;-70
2022/05/18 04:38:38;;;;;;;0.00;0.00;;;14.40;99.90;226.50;231333.00;;;;5093742;28;20217;-71
2022/05/18 04:41:06;;;;;;;0.10;0.10;;;14.40;99.90;226.50;231333.00;;;;5093098;28;20402;-71
2022/05/18 04:43:35;;;;;;;0.00;0.00;;;14.50;99.90;226.50;231333.00;;;;5082133;28;20639;-71
2022/05/18 04:46:04;;;;;;;0.00;0.00;;;14.50;99.90;226.50;231333.00;;;;5093740;28;20212;-70
2022/05/18 04:48:33;;;;;;;0.00;0.00;;;14.50;99.90;226.50;231333.00;;;;5094768;28;20270;-71
2022/05/18 04:51:05;;;;;;;0.00;0.00;;;14.50;99.90;226.50;231333.00;;;;5094917;28;20545;-70
2022/05/18 04:53:35;;;;;;;0.00;0.00;;;14.50;99.90;226.50;231333.00;;;;5094460;28;20270;-70
2022/05/18 04:56:06;;;;;;;0.00;0.00;;;14.50;99.90;226.50;231333.00;;;;5093039;28;20200;-69
2022/05/18 04:58:35;;;;;;;0.00;0.00;;;14.50;99.90;226.50;231333.00;;;;5094505;28;20242;-71
2022/05/18 05:01:08;;;;;;;0.00;0.00;;;14.60;99.90;226.50;231333.00;;;;5094400;28;20189;-68
2022/05/18 05:03:37;;;;;;;0.00;0.00;;;14.50;99.90;226.50;231333.00;;;;5094171;28;20201;-70
2022/05/18 05:06:07;;;;;;;0.10;0.10;;;14.50;99.90;226.50;231333.00;;;;5093331;28;20576;-71
2022/05/18 05:08:37;;;;;;;0.00;0.00;;;14.60;99.90;226.50;231333.00;;;;5095330;28;20593;-71
2022/05/18 05:11:08;;;;;;;0.00;0.00;;;14.60;99.90;226.50;231333.00;;;;5095535;28;20193;-71
2022/05/18 05:13:37;;;;;;;0.10;0.10;;;14.70;99.90;226.50;231333.00;;;;5095527;28;20609;-72
2022/05/18 05:16:10;;;;;;;0.00;0.00;;;14.70;99.90;226.50;231333.00;;;;5076734;28;20197;-67
2022/05/18 05:18:39;;;;;;;0.10;0.10;;;14.80;99.90;226.50;231333.00;;;;5093766;28;20251;-69
2022/05/18 05:21:08;;;;;;;0.00;0.00;;;14.90;99.90;226.50;231333.00;;;;5094155;28;20204;-70
2022/05/18 05:23:37;;;;;;;0.08;0.08;;;14.90;99.90;226.50;231333.00;;;;5094009;28;20192;-70
2022/05/18 05:26:07;;;;;;;0.00;0.00;;;14.90;99.90;226.50;231333.00;;;;5093406;28;20279;-70
2022/05/18 05:28:35;;;;;;;0.00;0.00;;;14.90;99.90;226.50;231333.00;;;;5094376;28;20215;-70
2022/05/18 05:31:06;;;;;;;0.00;0.00;;;14.90;99.90;226.50;231333.00;;;;5093436;28;20192;-70
2022/05/18 05:33:36;;;;;;;0.00;0.00;;;14.90;99.90;226.50;231333.00;;;;5093518;28;20193;-69
2022/05/18 05:36:06;;;;;;;0.00;0.00;;;14.90;99.90;226.50;231333.00;;;;5092513;28;20205;-70
2022/05/18 05:38:35;;;;;;;0.08;0.08;;;15.10;99.90;226.50;231333.00;;;;5093396;28;20639;-71
2022/05/18 05:41:04;;;;;;;0.00;0.00;;;15.10;99.90;226.50;231333.00;;;;5093864;28;20623;-70
2022/05/18 05:43:34;;;;;;;0.00;0.00;;;15.10;99.90;226.50;231333.00;;;;5093452;28;20242;-70
2022/05/18 05:46:09;;;;;;;0.00;0.00;;;15.20;99.90;226.50;231333.00;;;;5092975;28;20215;-70
2022/05/18 05:48:38;;;;;;;0.10;0.10;;;15.20;99.90;226.50;231333.00;;;;5119237;22;20740;-70
2022/05/18 05:51:08;;;;;;;0.00;0.00;;;15.30;99.90;226.50;231333.00;;;;5093036;28;20212;-69
2022/05/18 05:53:37;;;;;;;0.00;0.00;;;15.40;99.90;226.50;231333.00;;;;5093891;28;20193;-68
2022/05/18 05:56:06;;;;;;;0.00;0.00;;;15.40;99.90;226.50;231333.00;;;;5091318;28;20209;-70
2022/05/18 05:58:38;;;;;;;0.00;0.00;;;15.40;99.90;226.50;231333.00;;;;5084471;28;20404;-68
2022/05/18 06:01:11;;;;;;;0.00;0.00;;;15.50;99.90;226.50;231333.00;;;;5075071;28;20614;-69
2022/05/18 06:03:41;;;;;;;0.00;0.00;;;15.50;99.90;226.50;231333.00;;;;5073531;28;20419;-68
2022/05/18 06:06:10;;;;;;;0.00;0.00;;;15.50;99.90;226.50;231333.00;;;;5073781;28;20701;-68
2022/05/18 06:08:40;;;;;;;0.00;0.00;;;15.60;99.90;226.50;231333.00;;;;5079698;28;20231;-69
2022/05/18 06:11:10;;;;;;;0.00;0.00;;;15.70;99.90;226.50;231333.00;;;;5073369;28;20193;-69
2022/05/18 06:13:41;;;;;;;0.00;0.00;;;15.80;99.90;226.50;231333.00;;;;5073682;28;20261;-69
2022/05/18 06:16:10;;;;;;;0.00;0.00;;;15.90;99.90;226.50;231333.00;;;;5072436;28;20182;-70
2022/05/18 06:18:40;;;;;;;0.00;0.00;;;16.00;99.90;226.50;231333.00;;;;5073085;28;20190;-69
2022/05/18 06:21:08;;;;;;;0.05;0.05;;;16.10;99.90;226.50;231333.00;;;;5073514;28;20201;-71
2022/05/18 06:23:37;;;;;;;0.00;0.00;;;16.20;99.90;226.50;231333.00;;;;5073275;28;20239;-70
2022/05/18 06:26:07;;;;;;;0.00;0.00;;;16.30;99.90;226.50;231333.00;;;;5071964;28;20197;-70
2022/05/18 06:28:36;;;;;;;0.00;0.00;;;16.40;99.90;226.50;231333.00;;;;5072965;28;20689;-70
2022/05/18 06:31:06;;;;;;;0.00;0.00;;;16.50;99.90;226.50;231333.00;;;;5072884;28;20186;-70
2022/05/18 06:33:35;;;;;;;0.00;0.00;;;16.60;99.90;226.50;231333.00;;;;5072951;28;20188;-70
2022/05/18 06:36:05;;;;;;;0.00;0.00;;;16.70;99.90;226.50;231333.00;;;;5072586;28;20655;-70
2022/05/18 06:38:33;;;;;;;0.00;0.00;;;16.80;99.90;226.50;231333.00;;;;5079787;28;20185;-70
2022/05/18 06:43:48;;;;;;;0.00;0.00;;;17.10;99.90;226.50;231333.00;;;;5072635;28;20189;-71
2022/05/18 06:46:19;;;;;;;0.00;0.00;;;17.30;99.90;226.50;231333.00;;;;5071451;28;20567;-71
2022/05/18 06:48:48;;;;;;;0.00;0.00;;;17.40;99.90;226.50;231333.00;;;;5072556;28;20600;-70
2022/05/18 06:51:21;;;;;;;0.00;0.00;;;17.60;99.90;226.50;231333.00;;;;5072468;28;20194;-71
2022/05/18 06:53:51;;;;;;;0.00;0.00;;;17.70;99.90;226.50;231333.00;;;;5072335;28;20204;-70
2022/05/18 06:56:21;;;;;;;0.00;0.00;;;17.80;99.90;226.50;231333.00;;;;5071933;28;20209;-70
2022/05/18 06:58:51;;;;;;;0.00;0.00;;;17.90;99.90;226.50;231333.00;;;;5072627;28;20193;-70
2022/05/18 07:01:22;;;;;;;0.00;0.00;;;18.10;99.90;226.50;231333.00;;;;5072267;28;20602;-71
2022/05/18 07:03:51;;;;;;;0.00;0.00;;;18.30;99.90;226.50;231333.00;;;;5072621;28;20190;-70
2022/05/18 07:06:31;;;;;;;0.00;0.00;;;18.40;1.00;226.50;231333.00;;;;5075123;28;20604;-70
2022/05/18 07:09:00;;;;;;;0.00;0.00;;;18.50;1.00;226.50;231333.00;;;;5075621;28;20304;-70
2022/05/18 07:11:29;;;;;;;0.00;0.00;;;18.60;1.00;226.50;231333.00;;;;5072126;28;20194;-70
2022/05/18 07:13:58;;;;;;;0.00;0.00;;;18.70;1.00;226.50;231333.00;;;;5071968;28;20720;-70
2022/05/18 07:16:29;;;;;;;0.00;0.00;;;18.90;1.00;226.50;231333.00;;;;5071404;28;20201;-70
2022/05/18 07:18:58;;;;;;;0.00;0.00;;;19.10;99.90;226.50;231333.00;;;;5071634;28;20288;-70
2022/05/18 07:21:29;;;;;;;0.00;0.00;;;19.20;99.90;226.50;231333.00;;;;5072412;28;20197;-70
2022/05/18 07:23:57;;;;;;;0.10;0.10;;;19.20;99.90;226.50;231333.00;;;;5072023;28;20248;-70
2022/05/18 07:26:29;;;;;;;0.00;0.00;;;19.30;1.00;226.50;231333.00;;;;5071235;28;20201;-68
2022/05/18 07:28:59;;;;;;;0.00;0.00;;;19.40;99.90;226.50;231333.00;;;;5071959;28;20217;-69
2022/05/18 07:31:31;;;;;;;0.10;0.10;;;19.50;1.00;226.50;231333.00;;;;5071791;28;20200;-68
2022/05/18 07:34:21;;;;;;;0.00;0.00;;;19.60;1.00;226.50;231333.00;;;;5071475;28;20205;-69
2022/05/18 07:36:52;;;;;;;0.00;0.00;;;19.70;99.90;226.50;231333.00;;;;5078555;28;20197;-69
2022/05/18 07:39:21;;;;;;;0.00;0.00;;;19.90;99.90;226.50;231333.00;;;;5072013;28;20224;-69
2022/05/18 07:41:49;;;;;;;0.00;0.00;;;20.00;31.00;226.50;231333.00;;;;5072323;28;20193;-69
2022/05/18 07:44:18;;;;;;;0.00;0.00;;;20.10;1.00;226.50;231333.00;;;;5071744;28;20197;-69
2022/05/18 07:46:48;;;;;;;0.00;0.00;;;20.30;1.00;226.50;231333.00;;;;5071483;28;20233;-69
2022/05/18 07:49:17;;;;;;;0.00;0.00;;;20.20;1.00;226.50;231333.00;;;;5071796;28;20327;-69
2022/05/18 07:51:46;;;;;;;0.00;0.00;;;20.30;1.00;226.50;231333.00;;;;5072189;28;20190;-69
2022/05/18 07:54:15;;;;;;;0.00;0.00;;;20.40;99.90;226.50;231333.00;;;;5071763;28;20186;-69
2022/05/18 07:56:44;;;;;;;0.00;0.00;;;20.60;99.90;226.50;231333.00;;;;5071229;28;20712;-69
2022/05/18 07:59:14;;;;;;;0.00;0.00;;;20.80;1.00;226.50;231333.00;;;;5071778;28;20209;-68
2022/05/18 08:01:43;;;;;;;0.00;0.00;;;20.90;1.00;226.50;231333.00;;;;5071493;28;20193;-69
2022/05/18 08:04:14;;;;;;;0.00;0.00;;;21.00;99.90;226.50;231333.00;;;;5070571;28;20588;-69
2022/05/18 08:06:43;;;;;;;0.00;0.00;;;20.90;99.90;226.50;231333.00;;;;5082773;28;20241;-69
2022/05/18 08:09:11;;;;;;;0.00;0.00;;;21.10;1.00;226.50;231333.00;;;;5079816;28;20217;-69
2022/05/18 08:17:14;;;;;;;0.00;0.00;;;21.50;99.90;226.50;231333.00;;;;5076992;28;20194;-69
2022/05/18 08:19:44;;;;;;;0.00;0.00;;;21.80;99.90;226.50;231333.00;;;;5078965;28;20261;-69
2022/05/18 08:22:12;;;;;;;0.00;0.00;;;21.90;99.90;226.50;231333.00;;;;5094256;28;20705;-70
2022/05/18 08:24:41;;;;;;;0.00;0.00;;;22.10;99.90;226.50;231333.00;;;;5077985;28;20662;-70
2022/05/18 08:27:15;;;;;;;0.00;0.00;;;22.20;99.90;226.50;231333.00;;;;5077161;28;20194;-70
2022/05/18 08:29:44;;;;;;;0.00;0.00;;;22.20;99.90;226.50;231333.00;;;;5078504;28;20263;-70
2022/05/18 08:32:12;;;;;;;0.00;0.00;;;22.20;99.90;226.50;231333.00;;;;5077801;28;20247;-70
2022/05/18 08:34:42;;;;;;;0.00;0.00;;;22.40;99.90;226.50;231333.00;;;;5077984;28;20189;-69
2022/05/18 08:37:10;;;;;;;0.00;0.00;;;22.60;99.90;226.50;231333.00;;;;5085652;28;20189;-70
2022/05/18 08:39:39;;;;;;;0.00;0.00;;;22.80;99.90;226.50;231333.00;;;;5077985;28;20697;-70
2022/05/18 08:42:08;;;;;;;0.00;0.00;;;22.90;99.90;226.50;231333.00;;;;5077926;28;20251;-70
2022/05/18 08:44:37;;;;;;;0.00;0.00;;;22.90;99.90;226.50;231333.00;;;;5077967;28;20196;-70
2022/05/18 08:47:12;;;;;;;0.00;0.00;;;23.00;99.90;226.50;231333.00;;;;5078926;28;20197;-69
2022/05/18 08:49:53;;;;;;;0.00;0.00;;;23.20;99.90;226.50;231333.00;;;;5079627;28;20256;-70
2022/05/18 08:52:37;;;;;;;0.00;0.00;;;23.30;99.90;226.50;231333.00;;;;5079607;28;20190;-69
2022/05/18 08:55:45;;;;;;;0.00;0.00;;;23.20;99.90;226.50;231333.00;;;;5080208;28;20685;-69
2022/05/18 08:58:22;;;;;;;0.00;0.00;;;23.20;99.90;226.50;231333.00;;;;5080001;28;20247;-70
2022/05/18 09:00:59;;;;;;;0.00;0.00;;;23.20;99.90;226.50;231333.00;;;;5079876;28;20205;-70
2022/05/18 09:03:37;;;;;;;0.00;0.00;;;23.10;99.90;226.50;231333.00;;;;5079477;28;20198;-70
2022/05/18 09:06:16;;;;;;;0.00;0.00;;;23.10;99.90;226.50;231333.00;;;;5079162;28;20666;-70
2022/05/18 09:10:12;;;;;;;0.00;0.00;;;23.30;99.90;226.50;231333.00;;;;5084463;28;20747;-69
2022/05/18 09:11:42;;;;;;;0.00;0.00;;;23.40;99.90;226.50;231333.00;;;;5093999;28;20239;-70
2022/05/18 09:14:13;;;;;;;0.00;0.00;;;23.70;99.90;226.50;231333.00;;;;5077822;28;20243;-70
2022/05/18 09:16:50;;;;;;;0.00;0.00;;;23.70;99.90;226.50;231333.00;;;;5075171;28;20185;-70
2022/05/18 09:19:39;;;;;;;0.00;0.00;;;23.90;99.90;226.50;231333.00;;;;5074341;28;20217;-70
2022/05/18 09:22:25;;;;;;;0.00;0.00;;;24.00;99.90;226.50;231333.00;;;;5075150;28;20198;-70
2022/05/18 09:25:07;;;;;;;0.00;0.00;;;24.10;99.90;226.50;231333.00;;;;5074927;28;20256;-70
2022/05/18 09:28:00;;;;;;;0.00;0.00;;;24.30;99.90;226.50;231333.00;;;;5074008;28;20189;-69
2022/05/18 09:30:48;;;;;;;0.00;0.00;;;24.50;99.80;226.50;231333.00;;;;5074340;28;20233;-70
2022/05/18 09:33:37;;;;;;;0.00;0.00;;;24.50;99.70;226.50;231333.00;;;;5074573;28;20204;-70
2022/05/18 09:36:40;;;;;;;0.00;0.00;;;24.50;99.80;226.50;231333.00;;;;5073695;28;20205;-70
2022/05/18 09:39:15;;;;;;;0.00;0.00;;;24.80;99.80;226.50;231333.00;;;;5076818;28;20228;-70
2022/05/18 09:41:51;;;;;;;0.00;0.00;;;24.80;98.90;226.50;231333.00;;;;5074506;28;20246;-70
2022/05/18 09:44:29;;;;;;;0.00;0.00;;;24.80;98.50;226.50;231333.00;;;;5073984;28;20193;-70
2022/05/18 09:47:00;;;;;;;0.00;0.00;;;25.00;98.40;226.50;231333.00;;;;5073832;28;20198;-70
2022/05/18 09:49:36;;;;;;;0.00;0.00;;;24.90;98.40;226.50;231333.00;;;;5073404;28;20233;-70
2022/05/18 09:52:08;;;;;;;0.00;0.00;;;24.90;98.70;226.50;231333.00;;;;5073812;28;20193;-70
2022/05/18 09:54:39;;;;;;;0.00;0.00;;;25.00;98.00;226.50;231333.00;;;;5074920;28;20197;-70
2022/05/18 09:57:18;;;;;;;0.00;0.00;;;25.00;98.20;226.50;231333.00;;;;5073549;28;20189;-70
2022/05/18 09:59:56;;;;;;;0.00;0.00;;;25.00;98.30;226.50;231333.00;;;;5074086;28;20702;-70
2022/05/18 10:08:13;;;;;;;0.00;0.00;;;25.50;98.20;226.50;231333.00;;;;5082101;28;20557;-70
2022/05/18 10:10:44;;;;;;;0.00;0.00;;;25.70;97.90;226.50;231333.00;;;;5073681;28;20309;-70
2022/05/18 10:13:17;;;;;;;0.00;0.00;;;25.50;97.70;226.50;231333.00;;;;5073487;28;20186;-71
2022/05/18 10:16:17;;;;;;;0.00;0.00;;;25.60;97.20;226.50;231333.00;;;;5065160;28;20225;-70
2022/05/18 10:18:51;;;;;;;0.00;0.00;;;25.90;97.70;226.50;231333.00;;;;5053811;28;20205;-70
2022/05/18 10:21:26;;;;;;;0.00;0.00;;;25.90;96.90;226.50;231333.00;;;;5053451;28;21235;-70
2022/05/18 10:24:05;;;;;;;0.00;0.00;;;25.70;97.00;226.50;231333.00;;;;5064029;28;20197;-70
2022/05/18 10:26:38;;;;;;;0.00;0.00;;;26.00;97.10;226.50;231333.00;;;;5072775;28;20189;-70
2022/05/18 10:29:22;;;;;;;0.00;0.00;;;26.10;96.60;226.50;231333.00;;;;5073308;28;20587;-70
2022/05/18 10:32:06;;;;;;;0.00;0.00;;;26.30;96.30;226.50;231333.00;;;;5073337;28;20212;-69
2022/05/18 10:34:44;;;;;;;0.00;0.00;;;26.30;96.30;226.50;231333.00;;;;5073537;28;20197;-70
2022/05/18 10:37:24;;;;;;;0.00;0.00;;;26.10;96.30;226.50;231333.00;;;;5080611;28;20287;-69
2022/05/18 10:39:58;;;;;;;0.00;0.00;;;26.00;96.20;226.50;231333.00;;;;5073404;28;20236;-69
2022/05/18 10:42:30;;;;;;;0.00;0.00;;;25.90;96.40;226.50;231333.00;;;;5073451;28;20650;-70
2022/05/18 10:45:27;;;;;;;0.00;0.00;;;26.20;96.80;226.50;231333.00;;;;5073732;28;20204;-70
2022/05/18 10:48:03;;;;;;;0.00;0.00;;;26.50;96.40;226.50;231333.00;;;;5072688;28;20194;-70
2022/05/18 10:50:36;;;;;;;0.00;0.00;;;27.00;95.90;226.50;231333.00;;;;5072931;28;20759;-70
2022/05/18 10:53:28;;;;;;;0.00;0.00;;;26.90;95.20;226.50;231333.00;;;;5073426;28;20189;-69
2022/05/18 10:56:04;;;;;;;0.00;0.00;;;26.40;95.70;226.50;231333.00;;;;5072927;28;20198;-70
2022/05/18 10:58:40;;;;;;;0.00;0.00;;;26.30;95.80;226.50;231333.00;;;;5073113;28;20194;-70
2022/05/18 11:01:18;;;;;;;0.00;0.00;;;26.30;96.00;226.50;231333.00;;;;5072696;28;20539;-70
2022/05/18 11:03:59;;;;;;;0.00;0.00;;;25.90;95.90;226.50;231333.00;;;;5073162;28;20193;-70
2022/05/18 11:06:34;;;;;;;0.00;0.00;;;26.20;95.70;226.50;231333.00;;;;5075457;28;20239;-70
2022/05/18 11:09:08;;;;;;;0.00;0.00;;;26.30;95.30;226.50;231333.00;;;;5076095;28;20278;-70
2022/05/18 11:11:48;;;;;;;0.00;0.00;;;26.60;95.20;226.50;231333.00;;;;5073040;28;20196;-70
2022/05/18 11:14:28;;;;;;;0.00;0.00;;;26.80;95.10;226.50;231333.00;;;;5073108;28;20339;-70
2022/05/18 11:17:21;;;;;;;0.00;0.00;;;27.10;94.70;226.50;231333.00;;;;5072421;28;20186;-69
2022/05/18 11:20:06;;;;;;;0.00;0.00;;;27.10;94.40;226.50;231333.00;;;;5073246;28;20581;-70
2022/05/18 11:22:56;;;;;;;0.00;0.00;;;27.20;94.30;226.50;231333.00;;;;5073594;28;20188;-70
2022/05/18 11:25:40;;;;;;;0.00;0.00;;;27.60;94.00;226.50;231333.00;;;;5071735;28;20659;-70